sensor_id;sensor_type;location;lat;lon;timestamp;P1;durP1;ratioP1;P2;durP2;ratioP2
41546;SDS011;27271;45.412;10.852;2022-08-21T00:00:10;3.47;;;1.45;;
41546;SDS011;27271;45.412;10.852;2022-08-21T00:04:06;1.65;;;1.20;;
41546;SDS011;27271;45.412;10.852;2022-08-21T00:08:17;1.63;;;1.40;;
41546;SDS011;27271;45.412;10.852;2022-08-21T00:17:05;1.33;;;1.23;;
41546;SDS011;27271;45.412;10.852;2022-08-21T00:21:35;1.95;;;1.52;;
41546;SDS011;27271;45.412;10.852;2022-08-21T00:26:00;1.77;;;1.13;;
41546;SDS011;27271;45.412;10.852;2022-08-21T00:29:25;3.92;;;1.40;;
41546;SDS011;27271;45.412;10.852;2022-08-21T00:33:28;2.17;;;1.45;;
41546;SDS011;27271;45.412;10.852;2022-08-21T00:36:58;1.63;;;1.35;;
41546;SDS011;27271;45.412;10.852;2022-08-21T00:45:17;2.50;;;1.30;;
41546;SDS011;27271;45.412;10.852;2022-08-21T00:48:40;1.55;;;1.27;;
41546;SDS011;27271;45.412;10.852;2022-08-21T00:52:45;4.65;;;1.70;;
41546;SDS011;27271;45.412;10.852;2022-08-21T00:57:21;7.43;;;1.80;;
41546;SDS011;27271;45.412;10.852;2022-08-21T01:01:42;2.20;;;1.50;;
41546;SDS011;27271;45.412;10.852;2022-08-21T01:05:32;2.53;;;1.60;;
41546;SDS011;27271;45.412;10.852;2022-08-21T01:10:39;2.72;;;1.38;;
41546;SDS011;27271;45.412;10.852;2022-08-21T01:14:57;1.83;;;1.17;;
41546;SDS011;27271;45.412;10.852;2022-08-21T01:18:55;1.42;;;1.20;;
41546;SDS011;27271;45.412;10.852;2022-08-21T01:22:43;2.90;;;1.15;;
41546;SDS011;27271;45.412;10.852;2022-08-21T01:27:09;2.83;;;1.50;;
41546;SDS011;27271;45.412;10.852;2022-08-21T01:31:01;2.83;;;1.75;;
41546;SDS011;27271;45.412;10.852;2022-08-21T01:35:21;4.40;;;1.63;;
41546;SDS011;27271;45.412;10.852;2022-08-21T01:43:18;2.20;;;1.60;;
41546;SDS011;27271;45.412;10.852;2022-08-21T01:47:33;2.35;;;1.73;;
41546;SDS011;27271;45.412;10.852;2022-08-21T01:52:09;1.25;;;1.10;;
41546;SDS011;27271;45.412;10.852;2022-08-21T01:55:39;2.17;;;1.58;;
41546;SDS011;27271;45.412;10.852;2022-08-21T01:59:53;2.20;;;1.25;;
41546;SDS011;27271;45.412;10.852;2022-08-21T02:04:14;1.10;;;0.93;;
41546;SDS011;27271;45.412;10.852;2022-08-21T02:12:11;3.70;;;1.30;;
41546;SDS011;27271;45.412;10.852;2022-08-21T02:16:09;2.60;;;1.40;;
41546;SDS011;27271;45.412;10.852;2022-08-21T02:20:39;4.43;;;1.88;;
41546;SDS011;27271;45.412;10.852;2022-08-21T02:25:07;2.92;;;1.35;;
41546;SDS011;27271;45.412;10.852;2022-08-21T02:29:56;2.83;;;1.20;;
41546;SDS011;27271;45.412;10.852;2022-08-21T02:33:25;2.75;;;1.48;;
41546;SDS011;27271;45.412;10.852;2022-08-21T02:37:02;3.60;;;1.05;;
41546;SDS011;27271;45.412;10.852;2022-08-21T02:40:32;3.67;;;1.13;;
41546;SDS011;27271;45.412;10.852;2022-08-21T02:44:18;1.15;;;0.90;;
41546;SDS011;27271;45.412;10.852;2022-08-21T02:47:59;1.15;;;1.05;;
41546;SDS011;27271;45.412;10.852;2022-08-21T02:51:24;3.58;;;1.20;;
41546;SDS011;27271;45.412;10.852;2022-08-21T02:54:59;1.85;;;1.17;;
41546;SDS011;27271;45.412;10.852;2022-08-21T02:58:33;1.70;;;1.08;;
41546;SDS011;27271;45.412;10.852;2022-08-21T03:02:02;1.13;;;0.80;;
41546;SDS011;27271;45.412;10.852;2022-08-21T03:05:33;2.53;;;1.30;;
41546;SDS011;27271;45.412;10.852;2022-08-21T03:09:01;0.85;;;0.80;;
41546;SDS011;27271;45.412;10.852;2022-08-21T03:12:24;1.40;;;1.10;;
41546;SDS011;27271;45.412;10.852;2022-08-21T03:15:50;1.90;;;1.73;;
41546;SDS011;27271;45.412;10.852;2022-08-21T03:19:16;3.72;;;1.13;;
41546;SDS011;27271;45.412;10.852;2022-08-21T03:27:53;2.42;;;1.00;;
41546;SDS011;27271;45.412;10.852;2022-08-21T03:36:04;2.95;;;1.20;;
41546;SDS011;27271;45.412;10.852;2022-08-21T03:52:30;1.77;;;1.10;;
41546;SDS011;27271;45.412;10.852;2022-08-21T04:00:31;6.47;;;1.23;;
41546;SDS011;27271;45.412;10.852;2022-08-21T04:04:15;2.80;;;1.00;;
41546;SDS011;27271;45.412;10.852;2022-08-21T04:08:00;2.30;;;1.00;;
41546;SDS011;27271;45.412;10.852;2022-08-21T04:11:52;1.42;;;0.93;;
41546;SDS011;27271;45.412;10.852;2022-08-21T04:15:49;1.77;;;1.00;;
41546;SDS011;27271;45.412;10.852;2022-08-21T04:20:03;1.77;;;0.80;;
41546;SDS011;27271;45.412;10.852;2022-08-21T04:23:30;1.05;;;0.93;;
41546;SDS011;27271;45.412;10.852;2022-08-21T04:27:41;1.63;;;1.10;;
41546;SDS011;27271;45.412;10.852;2022-08-21T04:31:53;3.28;;;1.30;;
41546;SDS011;27271;45.412;10.852;2022-08-21T04:36:04;2.38;;;1.35;;
41546;SDS011;27271;45.412;10.852;2022-08-21T04:39:46;1.33;;;0.98;;
41546;SDS011;27271;45.412;10.852;2022-08-21T04:54:41;2.42;;;1.10;;
41546;SDS011;27271;45.412;10.852;2022-08-21T04:59:22;1.15;;;0.90;;
41546;SDS011;27271;45.412;10.852;2022-08-21T05:04:18;3.78;;;0.98;;
41546;SDS011;27271;45.412;10.852;2022-08-21T05:08:56;1.75;;;0.82;;
41546;SDS011;27271;45.412;10.852;2022-08-21T05:12:49;1.17;;;0.70;;
41546;SDS011;27271;45.412;10.852;2022-08-21T05:16:45;1.50;;;0.90;;
41546;SDS011;27271;45.412;10.852;2022-08-21T05:20:30;0.98;;;0.80;;
41546;SDS011;27271;45.412;10.852;2022-08-21T05:23:58;1.30;;;1.00;;
41546;SDS011;27271;45.412;10.852;2022-08-21T05:27:23;1.23;;;0.80;;
41546;SDS011;27271;45.412;10.852;2022-08-21T05:30:48;5.03;;;1.02;;
41546;SDS011;27271;45.412;10.852;2022-08-21T05:34:14;0.90;;;0.70;;
41546;SDS011;27271;45.412;10.852;2022-08-21T05:37:47;2.80;;;0.80;;
41546;SDS011;27271;45.412;10.852;2022-08-21T05:41:18;1.65;;;0.80;;
41546;SDS011;27271;45.412;10.852;2022-08-21T05:45:17;0.55;;;0.55;;
41546;SDS011;27271;45.412;10.852;2022-08-21T05:49:04;0.68;;;0.63;;
41546;SDS011;27271;45.412;10.852;2022-08-21T05:52:38;0.50;;;0.45;;
41546;SDS011;27271;45.412;10.852;2022-08-21T05:56:04;0.63;;;0.60;;
41546;SDS011;27271;45.412;10.852;2022-08-21T05:59:57;3.33;;;0.50;;
41546;SDS011;27271;45.412;10.852;2022-08-21T06:03:34;0.50;;;0.50;;
41546;SDS011;27271;45.412;10.852;2022-08-21T06:07:29;1.13;;;0.60;;
41546;SDS011;27271;45.412;10.852;2022-08-21T06:10:55;2.10;;;0.50;;
41546;SDS011;27271;45.412;10.852;2022-08-21T06:14:31;0.63;;;0.40;;
41546;SDS011;27271;45.412;10.852;2022-08-21T06:17:55;1.20;;;0.80;;
41546;SDS011;27271;45.412;10.852;2022-08-21T06:21:17;1.02;;;0.57;;
41546;SDS011;27271;45.412;10.852;2022-08-21T06:25:01;0.40;;;0.40;;
41546;SDS011;27271;45.412;10.852;2022-08-21T06:28:42;0.75;;;0.75;;
41546;SDS011;27271;45.412;10.852;2022-08-21T06:32:12;0.95;;;0.70;;
41546;SDS011;27271;45.412;10.852;2022-08-21T06:35:37;1.25;;;0.70;;
41546;SDS011;27271;45.412;10.852;2022-08-21T06:39:06;0.97;;;0.70;;
41546;SDS011;27271;45.412;10.852;2022-08-21T06:43:16;0.85;;;0.60;;
41546;SDS011;27271;45.412;10.852;2022-08-21T06:47:09;0.75;;;0.63;;
41546;SDS011;27271;45.412;10.852;2022-08-21T06:50:37;0.80;;;0.63;;
41546;SDS011;27271;45.412;10.852;2022-08-21T06:54:03;0.90;;;0.60;;
41546;SDS011;27271;45.412;10.852;2022-08-21T07:01:25;0.77;;;0.70;;
41546;SDS011;27271;45.412;10.852;2022-08-21T07:05:31;0.60;;;0.60;;
41546;SDS011;27271;45.412;10.852;2022-08-21T07:09:02;0.45;;;0.45;;
41546;SDS011;27271;45.412;10.852;2022-08-21T07:12:26;1.23;;;0.70;;
41546;SDS011;27271;45.412;10.852;2022-08-21T07:15:59;1.45;;;0.75;;
41546;SDS011;27271;45.412;10.852;2022-08-21T07:19:32;1.98;;;1.08;;
41546;SDS011;27271;45.412;10.852;2022-08-21T07:23:01;2.03;;;1.40;;
41546;SDS011;27271;45.412;10.852;2022-08-21T07:26:34;3.08;;;2.13;;
41546;SDS011;27271;45.412;10.852;2022-08-21T07:30:01;10.52;;;2.08;;
41546;SDS011;27271;45.412;10.852;2022-08-21T07:33:34;2.25;;;1.50;;
41546;SDS011;27271;45.412;10.852;2022-08-21T07:37:03;3.45;;;2.63;;
41546;SDS011;27271;45.412;10.852;2022-08-21T07:40:43;3.45;;;3.15;;
41546;SDS011;27271;45.412;10.852;2022-08-21T07:44:21;7.90;;;6.95;;
41546;SDS011;27271;45.412;10.852;2022-08-21T07:48:07;2.72;;;2.47;;
41546;SDS011;27271;45.412;10.852;2022-08-21T07:51:36;1.70;;;1.33;;
41546;SDS011;27271;45.412;10.852;2022-08-21T07:55:20;1.00;;;0.77;;
41546;SDS011;27271;45.412;10.852;2022-08-21T07:59:09;1.02;;;0.90;;
41546;SDS011;27271;45.412;10.852;2022-08-21T08:03:00;1.42;;;0.90;;
41546;SDS011;27271;45.412;10.852;2022-08-21T08:06:23;2.05;;;1.13;;
41546;SDS011;27271;45.412;10.852;2022-08-21T08:09:59;5.68;;;1.50;;
41546;SDS011;27271;45.412;10.852;2022-08-21T08:13:27;1.73;;;1.60;;
41546;SDS011;27271;45.412;10.852;2022-08-21T08:17:03;1.90;;;1.40;;
41546;SDS011;27271;45.412;10.852;2022-08-21T08:20:57;1.65;;;1.17;;
41546;SDS011;27271;45.412;10.852;2022-08-21T08:24:28;1.33;;;1.10;;
41546;SDS011;27271;45.412;10.852;2022-08-21T08:28:39;1.38;;;1.08;;
41546;SDS011;27271;45.412;10.852;2022-08-21T08:32:17;0.88;;;0.82;;
41546;SDS011;27271;45.412;10.852;2022-08-21T08:35:54;2.33;;;1.02;;
41546;SDS011;27271;45.412;10.852;2022-08-21T08:39:29;1.05;;;0.80;;
41546;SDS011;27271;45.412;10.852;2022-08-21T08:42:59;1.38;;;1.08;;
41546;SDS011;27271;45.412;10.852;2022-08-21T08:50:37;1.10;;;1.00;;
41546;SDS011;27271;45.412;10.852;2022-08-21T08:54:17;1.20;;;0.90;;
41546;SDS011;27271;45.412;10.852;2022-08-21T08:58:28;1.77;;;1.17;;
41546;SDS011;27271;45.412;10.852;2022-08-21T09:02:21;1.63;;;1.15;;
41546;SDS011;27271;45.412;10.852;2022-08-21T09:14:01;1.33;;;1.10;;
41546;SDS011;27271;45.412;10.852;2022-08-21T09:22:26;1.00;;;0.90;;
41546;SDS011;27271;45.412;10.852;2022-08-21T09:29:49;0.80;;;0.80;;
41546;SDS011;27271;45.412;10.852;2022-08-21T09:33:30;2.60;;;1.30;;
41546;SDS011;27271;45.412;10.852;2022-08-21T09:36:56;1.00;;;1.00;;
41546;SDS011;27271;45.412;10.852;2022-08-21T09:40:46;0.85;;;0.80;;
41546;SDS011;27271;45.412;10.852;2022-08-21T09:44:24;4.07;;;1.23;;
41546;SDS011;27271;45.412;10.852;2022-08-21T09:48:07;1.20;;;0.82;;
41546;SDS011;27271;45.412;10.852;2022-08-21T10:03:11;1.95;;;1.20;;
41546;SDS011;27271;45.412;10.852;2022-08-21T10:06:50;1.45;;;0.80;;
41546;SDS011;27271;45.412;10.852;2022-08-21T10:10:28;0.70;;;0.60;;
41546;SDS011;27271;45.412;10.852;2022-08-21T10:50:39;1.23;;;1.00;;
41546;SDS011;27271;45.412;10.852;2022-08-21T10:54:19;1.92;;;1.20;;
41546;SDS011;27271;45.412;10.852;2022-08-21T10:57:49;1.67;;;0.90;;
41546;SDS011;27271;45.412;10.852;2022-08-21T11:01:29;1.08;;;0.95;;
41546;SDS011;27271;45.412;10.852;2022-08-21T11:05:29;1.63;;;1.10;;
41546;SDS011;27271;45.412;10.852;2022-08-21T11:17:48;1.30;;;0.90;;
41546;SDS011;27271;45.412;10.852;2022-08-21T11:26:13;4.00;;;1.23;;
41546;SDS011;27271;45.412;10.852;2022-08-21T11:30:24;1.55;;;0.95;;
41546;SDS011;27271;45.412;10.852;2022-08-21T11:34:30;1.23;;;0.80;;
41546;SDS011;27271;45.412;10.852;2022-08-21T11:42:43;1.10;;;1.00;;
41546;SDS011;27271;45.412;10.852;2022-08-21T11:46:52;1.73;;;1.05;;
41546;SDS011;27271;45.412;10.852;2022-08-21T11:50:37;1.30;;;0.82;;
41546;SDS011;27271;45.412;10.852;2022-08-21T11:54:40;1.20;;;1.10;;
41546;SDS011;27271;45.412;10.852;2022-08-21T12:02:01;2.22;;;0.93;;
41546;SDS011;27271;45.412;10.852;2022-08-21T12:05:36;0.90;;;0.73;;
41546;SDS011;27271;45.412;10.852;2022-08-21T12:09:09;1.13;;;1.00;;
41546;SDS011;27271;45.412;10.852;2022-08-21T12:13:10;2.38;;;0.90;;
41546;SDS011;27271;45.412;10.852;2022-08-21T12:17:07;1.15;;;1.02;;
41546;SDS011;27271;45.412;10.852;2022-08-21T12:21:29;1.50;;;1.05;;
41546;SDS011;27271;45.412;10.852;2022-08-21T12:25:36;1.85;;;1.00;;
41546;SDS011;27271;45.412;10.852;2022-08-21T12:29:32;1.25;;;0.80;;
41546;SDS011;27271;45.412;10.852;2022-08-21T12:33:26;1.40;;;1.20;;
41546;SDS011;27271;45.412;10.852;2022-08-21T12:40:42;2.55;;;1.10;;
41546;SDS011;27271;45.412;10.852;2022-08-21T12:44:35;0.88;;;0.80;;
41546;SDS011;27271;45.412;10.852;2022-08-21T12:48:55;0.70;;;0.70;;
41546;SDS011;27271;45.412;10.852;2022-08-21T12:53:02;0.77;;;0.75;;
41546;SDS011;27271;45.412;10.852;2022-08-21T12:56:54;1.58;;;0.70;;
41546;SDS011;27271;45.412;10.852;2022-08-21T13:00:33;1.23;;;0.90;;
41546;SDS011;27271;45.412;10.852;2022-08-21T13:04:01;1.00;;;0.90;;
41546;SDS011;27271;45.412;10.852;2022-08-21T13:08:26;1.00;;;0.90;;
41546;SDS011;27271;45.412;10.852;2022-08-21T13:20:25;1.23;;;0.70;;
41546;SDS011;27271;45.412;10.852;2022-08-21T13:28:11;2.72;;;0.90;;
41546;SDS011;27271;45.412;10.852;2022-08-21T13:32:05;1.55;;;0.80;;
41546;SDS011;27271;45.412;10.852;2022-08-21T13:36:03;0.75;;;0.75;;
41546;SDS011;27271;45.412;10.852;2022-08-21T13:39:32;1.15;;;0.70;;
41546;SDS011;27271;45.412;10.852;2022-08-21T13:42:59;1.15;;;0.65;;
41546;SDS011;27271;45.412;10.852;2022-08-21T13:46:27;0.80;;;0.80;;
41546;SDS011;27271;45.412;10.852;2022-08-21T13:50:05;1.00;;;0.77;;
41546;SDS011;27271;45.412;10.852;2022-08-21T13:53:36;0.50;;;0.50;;
41546;SDS011;27271;45.412;10.852;2022-08-21T13:57:16;0.80;;;0.80;;
41546;SDS011;27271;45.412;10.852;2022-08-21T14:00:48;1.65;;;0.90;;
41546;SDS011;27271;45.412;10.852;2022-08-21T14:04:16;0.75;;;0.63;;
41546;SDS011;27271;45.412;10.852;2022-08-21T14:07:46;1.30;;;0.75;;
41546;SDS011;27271;45.412;10.852;2022-08-21T14:11:31;0.70;;;0.70;;
41546;SDS011;27271;45.412;10.852;2022-08-21T14:15:06;1.35;;;0.90;;
41546;SDS011;27271;45.412;10.852;2022-08-21T14:18:31;2.55;;;0.90;;
41546;SDS011;27271;45.412;10.852;2022-08-21T14:22:21;1.10;;;1.00;;
41546;SDS011;27271;45.412;10.852;2022-08-21T14:25:53;1.13;;;0.70;;
41546;SDS011;27271;45.412;10.852;2022-08-21T14:29:26;1.63;;;1.25;;
41546;SDS011;27271;45.412;10.852;2022-08-21T14:32:57;1.20;;;1.10;;
41546;SDS011;27271;45.412;10.852;2022-08-21T14:36:21;2.70;;;0.90;;
41546;SDS011;27271;45.412;10.852;2022-08-21T14:39:52;1.75;;;0.88;;
41546;SDS011;27271;45.412;10.852;2022-08-21T14:43:50;1.53;;;0.80;;
41546;SDS011;27271;45.412;10.852;2022-08-21T14:51:15;1.40;;;0.90;;
41546;SDS011;27271;45.412;10.852;2022-08-21T14:55:19;4.03;;;0.93;;
41546;SDS011;27271;45.412;10.852;2022-08-21T14:59:11;1.17;;;0.95;;
41546;SDS011;27271;45.412;10.852;2022-08-21T15:02:45;0.75;;;0.70;;
41546;SDS011;27271;45.412;10.852;2022-08-21T15:06:29;1.10;;;1.10;;
41546;SDS011;27271;45.412;10.852;2022-08-21T15:10:44;1.80;;;1.30;;
41546;SDS011;27271;45.412;10.852;2022-08-21T15:14:33;1.42;;;0.93;;
41546;SDS011;27271;45.412;10.852;2022-08-21T15:18:22;1.20;;;0.95;;
41546;SDS011;27271;45.412;10.852;2022-08-21T15:22:44;1.02;;;0.93;;
41546;SDS011;27271;45.412;10.852;2022-08-21T15:31:12;2.05;;;0.90;;
41546;SDS011;27271;45.412;10.852;2022-08-21T15:35:10;0.95;;;0.65;;
41546;SDS011;27271;45.412;10.852;2022-08-21T15:38:57;0.98;;;0.70;;
41546;SDS011;27271;45.412;10.852;2022-08-21T15:42:45;1.38;;;0.80;;
41546;SDS011;27271;45.412;10.852;2022-08-21T15:46:28;2.55;;;1.58;;
41546;SDS011;27271;45.412;10.852;2022-08-21T15:49:55;1.85;;;0.88;;
41546;SDS011;27271;45.412;10.852;2022-08-21T15:53:20;2.28;;;0.90;;
41546;SDS011;27271;45.412;10.852;2022-08-21T15:57:00;0.80;;;0.75;;
41546;SDS011;27271;45.412;10.852;2022-08-21T16:00:53;0.82;;;0.70;;
41546;SDS011;27271;45.412;10.852;2022-08-21T16:04:52;1.20;;;0.70;;
41546;SDS011;27271;45.412;10.852;2022-08-21T16:08:44;1.20;;;0.75;;
41546;SDS011;27271;45.412;10.852;2022-08-21T16:12:31;0.70;;;0.70;;
41546;SDS011;27271;45.412;10.852;2022-08-21T16:16:14;0.70;;;0.70;;
41546;SDS011;27271;45.412;10.852;2022-08-21T16:20:06;0.70;;;0.70;;
41546;SDS011;27271;45.412;10.852;2022-08-21T16:27:30;1.15;;;0.90;;
41546;SDS011;27271;45.412;10.852;2022-08-21T16:31:23;0.82;;;0.80;;
41546;SDS011;27271;45.412;10.852;2022-08-21T16:35:07;1.08;;;0.73;;
41546;SDS011;27271;45.412;10.852;2022-08-21T16:39:16;1.07;;;1.00;;
41546;SDS011;27271;45.412;10.852;2022-08-21T16:43:15;0.70;;;0.70;;
41546;SDS011;27271;45.412;10.852;2022-08-21T16:47:11;1.17;;;0.70;;
41546;SDS011;27271;45.412;10.852;2022-08-21T16:50:48;2.53;;;1.67;;
41546;SDS011;27271;45.412;10.852;2022-08-21T16:54:34;0.75;;;0.70;;
41546;SDS011;27271;45.412;10.852;2022-08-21T16:58:35;0.80;;;0.70;;
41546;SDS011;27271;45.412;10.852;2022-08-21T17:02:49;1.48;;;1.02;;
41546;SDS011;27271;45.412;10.852;2022-08-21T17:06:26;1.75;;;1.50;;
41546;SDS011;27271;45.412;10.852;2022-08-21T17:10:00;15.25;;;7.80;;
41546;SDS011;27271;45.412;10.852;2022-08-21T17:14:17;13.77;;;7.82;;
41546;SDS011;27271;45.412;10.852;2022-08-21T17:17:54;23.38;;;13.23;;
41546;SDS011;27271;45.412;10.852;2022-08-21T17:21:41;8.80;;;5.82;;
41546;SDS011;27271;45.412;10.852;2022-08-21T17:25:29;27.95;;;14.23;;
41546;SDS011;27271;45.412;10.852;2022-08-21T17:29:59;9.80;;;3.80;;
41546;SDS011;27271;45.412;10.852;2022-08-21T17:33:25;3.15;;;1.63;;
41546;SDS011;27271;45.412;10.852;2022-08-21T17:37:06;14.35;;;7.78;;
41546;SDS011;27271;45.412;10.852;2022-08-21T17:44:34;1.63;;;1.00;;
41546;SDS011;27271;45.412;10.852;2022-08-21T17:52:09;4.28;;;2.53;;
41546;SDS011;27271;45.412;10.852;2022-08-21T17:59:54;1.38;;;0.98;;
41546;SDS011;27271;45.412;10.852;2022-08-21T18:03:45;0.65;;;0.65;;
41546;SDS011;27271;45.412;10.852;2022-08-21T18:10:54;3.40;;;2.20;;
41546;SDS011;27271;45.412;10.852;2022-08-21T18:14:47;16.08;;;9.10;;
41546;SDS011;27271;45.412;10.852;2022-08-21T18:19:00;20.30;;;12.60;;
41546;SDS011;27271;45.412;10.852;2022-08-21T18:23:12;17.50;;;9.50;;
41546;SDS011;27271;45.412;10.852;2022-08-21T18:27:21;15.05;;;7.53;;
41546;SDS011;27271;45.412;10.852;2022-08-21T18:30:54;25.40;;;13.32;;
41546;SDS011;27271;45.412;10.852;2022-08-21T18:37:46;19.60;;;11.70;;
41546;SDS011;27271;45.412;10.852;2022-08-21T18:41:20;28.33;;;16.25;;
41546;SDS011;27271;45.412;10.852;2022-08-21T18:45:13;18.55;;;10.85;;
41546;SDS011;27271;45.412;10.852;2022-08-21T18:48:50;39.33;;;18.27;;
41546;SDS011;27271;45.412;10.852;2022-08-21T18:52:42;13.98;;;8.10;;
41546;SDS011;27271;45.412;10.852;2022-08-21T18:56:26;26.55;;;12.55;;
41546;SDS011;27271;45.412;10.852;2022-08-21T19:00:03;20.98;;;10.80;;
41546;SDS011;27271;45.412;10.852;2022-08-21T19:03:42;26.80;;;13.52;;
41546;SDS011;27271;45.412;10.852;2022-08-21T19:07:20;28.95;;;14.68;;
41546;SDS011;27271;45.412;10.852;2022-08-21T19:10:56;21.52;;;11.35;;
41546;SDS011;27271;45.412;10.852;2022-08-21T19:14:28;15.15;;;8.52;;
41546;SDS011;27271;45.412;10.852;2022-08-21T19:18:13;11.02;;;6.13;;
41546;SDS011;27271;45.412;10.852;2022-08-21T19:22:18;12.02;;;5.93;;
41546;SDS011;27271;45.412;10.852;2022-08-21T19:26:02;4.30;;;3.08;;
41546;SDS011;27271;45.412;10.852;2022-08-21T19:29:30;3.08;;;2.33;;
41546;SDS011;27271;45.412;10.852;2022-08-21T19:37:02;3.33;;;1.92;;
41546;SDS011;27271;45.412;10.852;2022-08-21T19:40:34;4.63;;;1.90;;
41546;SDS011;27271;45.412;10.852;2022-08-21T19:44:05;2.85;;;1.80;;
41546;SDS011;27271;45.412;10.852;2022-08-21T19:48:07;2.95;;;1.80;;
41546;SDS011;27271;45.412;10.852;2022-08-21T19:51:45;2.40;;;1.73;;
41546;SDS011;27271;45.412;10.852;2022-08-21T19:55:44;3.80;;;2.38;;
41546;SDS011;27271;45.412;10.852;2022-08-21T19:59:54;2.75;;;1.88;;
41546;SDS011;27271;45.412;10.852;2022-08-21T20:03:28;3.00;;;1.85;;
41546;SDS011;27271;45.412;10.852;2022-08-21T20:07:04;2.72;;;1.75;;
41546;SDS011;27271;45.412;10.852;2022-08-21T20:10:30;3.55;;;1.50;;
41546;SDS011;27271;45.412;10.852;2022-08-21T20:14:13;2.38;;;1.60;;
41546;SDS011;27271;45.412;10.852;2022-08-21T20:17:45;2.33;;;1.98;;
41546;SDS011;27271;45.412;10.852;2022-08-21T20:21:31;2.35;;;2.03;;
41546;SDS011;27271;45.412;10.852;2022-08-21T20:25:42;2.20;;;1.95;;
41546;SDS011;27271;45.412;10.852;2022-08-21T20:33:45;2.78;;;1.75;;
41546;SDS011;27271;45.412;10.852;2022-08-21T20:37:23;3.97;;;1.90;;
41546;SDS011;27271;45.412;10.852;2022-08-21T20:41:08;3.53;;;1.98;;
41546;SDS011;27271;45.412;10.852;2022-08-21T20:45:36;3.22;;;1.70;;
41546;SDS011;27271;45.412;10.852;2022-08-21T20:49:04;3.90;;;1.88;;
41546;SDS011;27271;45.412;10.852;2022-08-21T20:56:13;2.50;;;1.55;;
41546;SDS011;27271;45.412;10.852;2022-08-21T21:00:10;4.05;;;1.90;;
41546;SDS011;27271;45.412;10.852;2022-08-21T21:04:36;2.55;;;1.45;;
41546;SDS011;27271;45.412;10.852;2022-08-21T21:08:27;6.55;;;1.75;;
41546;SDS011;27271;45.412;10.852;2022-08-21T21:12:04;1.83;;;1.63;;
41546;SDS011;27271;45.412;10.852;2022-08-21T21:15:33;1.50;;;1.33;;
41546;SDS011;27271;45.412;10.852;2022-08-21T21:19:09;1.88;;;1.25;;
41546;SDS011;27271;45.412;10.852;2022-08-21T21:27:05;1.27;;;0.90;;
41546;SDS011;27271;45.412;10.852;2022-08-21T21:30:40;1.95;;;1.10;;
41546;SDS011;27271;45.412;10.852;2022-08-21T21:34:12;2.78;;;1.63;;
41546;SDS011;27271;45.412;10.852;2022-08-21T21:38:02;1.60;;;1.30;;
41546;SDS011;27271;45.412;10.852;2022-08-21T21:41:51;5.53;;;1.60;;
41546;SDS011;27271;45.412;10.852;2022-08-21T21:45:45;2.10;;;1.30;;
41546;SDS011;27271;45.412;10.852;2022-08-21T21:57:05;2.85;;;1.52;;
41546;SDS011;27271;45.412;10.852;2022-08-21T22:00:50;1.70;;;1.38;;
41546;SDS011;27271;45.412;10.852;2022-08-21T22:04:26;4.93;;;1.20;;
41546;SDS011;27271;45.412;10.852;2022-08-21T22:15:16;2.00;;;1.55;;
41546;SDS011;27271;45.412;10.852;2022-08-21T22:18:49;1.73;;;1.40;;
41546;SDS011;27271;45.412;10.852;2022-08-21T22:22:17;2.33;;;1.52;;
41546;SDS011;27271;45.412;10.852;2022-08-21T22:25:42;3.70;;;1.42;;
41546;SDS011;27271;45.412;10.852;2022-08-21T22:29:09;2.05;;;1.58;;
41546;SDS011;27271;45.412;10.852;2022-08-21T22:32:39;2.27;;;1.70;;
41546;SDS011;27271;45.412;10.852;2022-08-21T22:36:14;4.18;;;1.70;;
41546;SDS011;27271;45.412;10.852;2022-08-21T22:39:42;3.28;;;1.52;;
41546;SDS011;27271;45.412;10.852;2022-08-21T22:43:30;2.15;;;1.45;;
41546;SDS011;27271;45.412;10.852;2022-08-21T22:46:55;2.25;;;1.38;;
41546;SDS011;27271;45.412;10.852;2022-08-21T22:50:33;1.80;;;1.20;;
41546;SDS011;27271;45.412;10.852;2022-08-21T22:54:21;2.22;;;1.30;;
41546;SDS011;27271;45.412;10.852;2022-08-21T23:01:59;3.10;;;1.25;;
41546;SDS011;27271;45.412;10.852;2022-08-21T23:05:54;1.90;;;1.63;;
41546;SDS011;27271;45.412;10.852;2022-08-21T23:12:49;3.72;;;1.67;;
41546;SDS011;27271;45.412;10.852;2022-08-21T23:20:36;1.70;;;1.25;;
41546;SDS011;27271;45.412;10.852;2022-08-21T23:36:47;1.80;;;1.30;;
41546;SDS011;27271;45.412;10.852;2022-08-21T23:40:49;1.48;;;1.10;;
41546;SDS011;27271;45.412;10.852;2022-08-21T23:53:25;2.75;;;1.45;;
